createdAt,value
2018-12-28T00:00:26.879Z,10.63
2018-12-28T00:03:30.295Z,10.10
2018-12-28T00:06:33.740Z,10.17
2018-12-28T00:09:37.152Z,10.77
2018-12-28T00:12:40.601Z,12.00
2018-12-28T00:15:44.012Z,10.80
2018-12-28T00:18:47.456Z,11.77
2018-12-28T00:21:50.873Z,10.30
2018-12-28T00:24:54.321Z,11.30
2018-12-28T00:27:57.728Z,11.43
2018-12-28T00:31:01.173Z,11.40
2018-12-28T00:34:04.588Z,11.50
2018-12-28T00:37:08.121Z,9.97
2018-12-28T00:40:11.534Z,10.60
2018-12-28T00:43:14.987Z,10.87
2018-12-28T00:46:18.431Z,11.27
2018-12-28T00:49:21.837Z,11.07
2018-12-28T00:52:25.280Z,11.80
2018-12-28T00:55:28.700Z,11.53
2018-12-28T00:58:32.144Z,11.67
2018-12-28T01:01:35.563Z,11.57
2018-12-28T01:04:39.007Z,10.17
2018-12-28T01:07:42.421Z,10.90
2018-12-28T01:10:45.856Z,10.17
2018-12-28T01:13:49.282Z,10.47
2018-12-28T01:16:52.725Z,10.87
2018-12-28T01:19:56.144Z,10.87
2018-12-28T01:22:59.592Z,10.90
2018-12-28T01:26:03.003Z,11.87
2018-12-28T01:29:06.449Z,11.53
2018-12-28T01:32:09.864Z,11.50
2018-12-28T01:35:13.313Z,11.83
2018-12-28T01:38:16.728Z,11.27
2018-12-28T01:41:20.178Z,11.40
2018-12-28T01:44:23.596Z,11.17
2018-12-28T01:47:27.040Z,11.70
2018-12-28T01:50:30.452Z,11.10
2018-12-28T01:53:33.897Z,11.50
2018-12-28T01:56:37.308Z,12.07
2018-12-28T01:59:40.758Z,12.10
2018-12-28T02:02:44.169Z,11.43
2018-12-28T02:05:47.616Z,11.73
2018-12-28T02:08:51.031Z,11.43
2018-12-28T02:11:54.460Z,11.37
2018-12-28T02:14:57.877Z,10.73
2018-12-28T02:18:01.312Z,11.50
2018-12-28T02:21:04.762Z,12.37
2018-12-28T02:24:08.176Z,11.87
2018-12-28T02:27:11.631Z,11.90
2018-12-28T02:30:34.403Z,12.13
2018-12-28T02:33:37.845Z,11.00
2018-12-28T02:36:41.285Z,11.87
2018-12-28T02:39:44.704Z,11.80
2018-12-28T02:42:48.156Z,12.87
2018-12-28T02:45:51.600Z,11.40
2018-12-28T02:48:55.051Z,11.50
2018-12-28T02:51:58.463Z,11.67
2018-12-28T02:55:01.918Z,11.50
2018-12-28T02:58:05.322Z,12.67
2018-12-28T03:01:08.762Z,12.40
2018-12-28T03:04:12.181Z,11.83
2018-12-28T03:07:15.615Z,12.23
2018-12-28T03:10:19.033Z,11.63
2018-12-28T03:13:22.477Z,11.97
2018-12-28T03:16:25.889Z,12.27
2018-12-28T03:19:29.342Z,11.93
2018-12-28T03:22:32.750Z,12.13
2018-12-28T03:25:36.196Z,11.80
2018-12-28T03:28:39.612Z,11.87
2018-12-28T03:31:43.058Z,12.90
2018-12-28T03:34:46.489Z,12.80
2018-12-28T03:37:49.937Z,12.50
2018-12-28T03:40:53.365Z,11.87
2018-12-28T03:43:56.796Z,11.83
2018-12-28T03:47:00.215Z,12.00
2018-12-28T03:50:03.824Z,13.20
2018-12-28T03:53:07.241Z,13.23
2018-12-28T03:56:10.698Z,11.80
2018-12-28T03:59:14.122Z,12.40
2018-12-28T04:02:17.572Z,12.03
2018-12-28T04:05:20.996Z,13.10
2018-12-28T04:08:24.455Z,12.97
2018-12-28T04:11:27.852Z,12.20
2018-12-28T04:14:31.296Z,12.53
2018-12-28T04:17:34.712Z,12.37
2018-12-28T04:20:38.152Z,13.07
2018-12-28T04:23:41.578Z,12.20
2018-12-28T04:26:45.021Z,13.17
2018-12-28T04:29:48.440Z,13.33
2018-12-28T04:32:51.872Z,12.77
2018-12-28T04:35:55.316Z,13.90
2018-12-28T04:38:58.737Z,14.43
2018-12-28T04:42:02.190Z,13.40
2018-12-28T04:45:05.868Z,13.83
2018-12-28T04:48:09.317Z,12.77
2018-12-28T04:51:12.976Z,12.37
2018-12-28T04:54:18.213Z,13.57
2018-12-28T04:57:22.505Z,12.83
2018-12-28T05:00:27.849Z,13.03
2018-12-28T05:03:34.333Z,12.73
2018-12-28T05:06:40.844Z,13.07
2018-12-28T05:09:50.105Z,12.43
2018-12-28T05:12:59.388Z,13.20
2018-12-28T05:16:05.868Z,13.90
2018-12-28T05:19:12.389Z,13.13
2018-12-28T05:22:24.731Z,14.13
2018-12-28T05:25:33.896Z,14.30
2018-12-28T05:28:45.828Z,14.07
2018-12-28T05:31:49.345Z,14.43
2018-12-28T05:34:52.756Z,12.93
2018-12-28T05:37:56.197Z,14.10
2018-12-28T05:40:59.645Z,14.27
2018-12-28T05:44:03.061Z,14.07
2018-12-28T05:47:06.515Z,12.37
2018-12-28T05:50:09.927Z,13.37
2018-12-28T05:53:13.369Z,13.83
2018-12-28T05:56:16.788Z,13.00
2018-12-28T05:59:20.224Z,14.60
2018-12-28T06:02:23.728Z,13.40
2018-12-28T06:05:27.177Z,13.10
2018-12-28T06:08:30.624Z,15.27
2018-12-28T06:11:34.037Z,14.17
2018-12-28T06:14:37.554Z,12.60
2018-12-28T06:17:40.963Z,13.10
2018-12-28T06:20:44.425Z,14.23
2018-12-28T06:23:47.837Z,13.13
2018-12-28T06:26:51.280Z,14.17
2018-12-28T06:29:54.700Z,14.20
2018-12-28T06:32:58.145Z,13.47
2018-12-28T06:36:01.571Z,13.47
2018-12-28T06:39:06.444Z,13.50
2018-12-28T06:42:09.888Z,13.00
2018-12-28T06:45:13.303Z,19.80
2018-12-28T06:48:16.760Z,14.90
2018-12-28T06:51:20.174Z,14.07
2018-12-28T06:54:44.325Z,12.67
2018-12-28T06:58:12.892Z,12.37
2018-12-28T07:01:41.689Z,13.07
2018-12-28T07:04:59.773Z,13.77
2018-12-28T07:08:29.911Z,11.90
2018-12-28T07:11:53.552Z,13.47
2018-12-28T07:15:19.528Z,12.77
2018-12-28T07:18:58.873Z,12.23
2018-12-28T07:22:20.142Z,12.03
2018-12-28T07:25:38.388Z,10.80
2018-12-28T07:28:47.828Z,12.23
2018-12-28T07:32:27.276Z,11.73
2018-12-28T07:35:54.574Z,10.93
2018-12-28T07:39:23.318Z,12.03
2018-12-28T07:42:50.721Z,12.37
2018-12-28T07:46:05.889Z,11.57
2018-12-28T07:49:30.051Z,11.90
2018-12-28T07:52:39.215Z,12.00
2018-12-28T07:56:16.560Z,11.93
2018-12-28T07:59:41.224Z,12.50
2018-12-28T08:03:12.869Z,12.13
2018-12-28T08:06:30.897Z,12.43
2018-12-28T08:09:49.135Z,13.13
2018-12-28T08:13:01.548Z,11.70
2018-12-28T08:16:23.148Z,12.07
2018-12-28T08:19:41.260Z,11.87
2018-12-28T08:22:50.314Z,11.17
2018-12-28T08:25:59.497Z,11.73
2018-12-28T08:29:14.746Z,12.23
2018-12-28T08:32:39.093Z,11.57
2018-12-28T08:35:57.683Z,12.30
2018-12-28T08:39:06.856Z,12.17
2018-12-28T08:42:22.215Z,11.23
2018-12-28T08:45:54.068Z,11.17
2018-12-28T08:49:19.713Z,12.23
2018-12-28T08:52:43.481Z,11.63
2018-12-28T08:56:01.674Z,11.37
2018-12-28T08:59:16.881Z,11.70
2018-12-28T09:02:32.129Z,11.90
2018-12-28T09:05:46.745Z,11.83
2018-12-28T09:09:10.886Z,12.07
2018-12-28T09:12:45.693Z,12.47
2018-12-28T09:16:13.222Z,10.93
2018-12-28T09:19:22.397Z,12.53
2018-12-28T09:22:31.791Z,12.13
2018-12-28T09:25:41.225Z,12.30
2018-12-28T09:28:53.233Z,12.03
2018-12-28T09:32:02.349Z,11.47
2018-12-28T09:35:20.705Z,11.73
2018-12-28T09:38:48.191Z,11.67
2018-12-28T09:42:00.057Z,13.00
2018-12-28T09:45:24.576Z,12.67
2018-12-28T09:48:28.821Z,11.77
2018-12-28T09:51:35.340Z,11.77
2018-12-28T09:54:42.202Z,12.77
2018-12-28T09:58:00.536Z,10.67
2018-12-28T10:01:28.024Z,13.33
2018-12-28T10:04:56.615Z,12.03
2018-12-28T10:08:23.340Z,12.70
2018-12-28T10:11:35.362Z,12.83
2018-12-28T10:14:41.870Z,12.53
2018-12-28T10:17:46.948Z,12.90
2018-12-28T10:20:50.376Z,13.07
2018-12-28T10:23:53.810Z,13.03
2018-12-28T10:26:57.244Z,12.93
2018-12-28T10:30:00.662Z,11.97
2018-12-28T10:33:04.102Z,13.93
2018-12-28T10:36:07.537Z,14.40
2018-12-28T10:39:10.958Z,13.63
2018-12-28T10:42:14.388Z,14.20
2018-12-28T10:45:17.809Z,13.33
2018-12-28T10:48:21.240Z,13.67
2018-12-28T10:51:24.665Z,13.87
2018-12-28T10:54:28.106Z,13.47
2018-12-28T10:57:31.524Z,12.90
2018-12-28T11:00:34.963Z,14.27
2018-12-28T11:03:38.377Z,14.03
2018-12-28T11:06:41.821Z,14.00
2018-12-28T11:09:45.285Z,14.13
2018-12-28T11:12:48.725Z,15.13
2018-12-28T11:15:52.139Z,13.43
2018-12-28T11:18:55.624Z,13.80
2018-12-28T11:21:59.072Z,14.47
2018-12-28T11:25:02.505Z,14.03
2018-12-28T11:28:05.949Z,15.70
2018-12-28T11:31:09.384Z,15.03
2018-12-28T11:34:12.824Z,14.23
2018-12-28T11:37:16.269Z,15.43
2018-12-28T11:40:19.708Z,15.43
2018-12-28T11:43:23.123Z,15.00
2018-12-28T11:46:26.561Z,15.03
2018-12-28T11:49:30.023Z,15.43
2018-12-28T11:52:33.444Z,15.27
2018-12-28T11:55:36.869Z,15.90
2018-12-28T11:58:40.318Z,16.93
2018-12-28T12:01:43.732Z,15.67
2018-12-28T12:04:47.169Z,17.50
2018-12-28T12:07:50.601Z,16.70
2018-12-28T12:10:54.039Z,16.43
2018-12-28T12:13:57.450Z,17.00
2018-12-28T12:17:00.886Z,17.47
2018-12-28T12:20:05.579Z,17.93
2018-12-28T12:23:08.980Z,19.33
2018-12-28T12:26:12.433Z,18.37
2018-12-28T12:29:15.857Z,17.73
2018-12-28T12:32:19.296Z,19.20
2018-12-28T12:35:22.738Z,19.30
2018-12-28T12:38:26.149Z,19.90
2018-12-28T12:41:29.601Z,21.53
2018-12-28T12:44:33.026Z,19.80
2018-12-28T12:47:36.460Z,19.53
2018-12-28T12:50:39.933Z,19.30
2018-12-28T12:53:43.345Z,17.90
2018-12-28T12:56:46.799Z,17.13
2018-12-28T12:59:50.213Z,17.77
2018-12-28T13:02:53.656Z,16.93
2018-12-28T13:05:57.101Z,17.60
2018-12-28T13:09:00.535Z,17.97
2018-12-28T13:12:03.972Z,18.57
2018-12-28T13:15:07.719Z,18.07
2018-12-28T13:18:11.145Z,18.97
2018-12-28T13:21:14.586Z,17.47
2018-12-28T13:24:18.029Z,17.67
2018-12-28T13:27:21.468Z,18.00
2018-12-28T13:30:24.900Z,19.07
2018-12-28T13:33:28.316Z,18.87
2018-12-28T13:36:31.798Z,19.07
2018-12-28T13:39:35.201Z,18.47
2018-12-28T13:42:38.637Z,19.27
2018-12-28T13:45:42.074Z,18.17
2018-12-28T13:48:45.485Z,20.63
2018-12-28T13:51:48.929Z,19.43
2018-12-28T13:54:52.340Z,19.67
2018-12-28T13:57:55.777Z,20.33
2018-12-28T14:00:59.209Z,20.27
2018-12-28T14:04:02.644Z,21.87
2018-12-28T14:07:06.883Z,20.37
2018-12-28T14:10:10.325Z,21.70
2018-12-28T14:13:13.776Z,21.13
2018-12-28T14:16:17.254Z,22.13
2018-12-28T14:19:20.659Z,22.03
2018-12-28T14:22:24.096Z,20.47
2018-12-28T14:25:27.549Z,22.43
2018-12-28T14:28:31.045Z,23.20
2018-12-28T14:31:34.500Z,21.37
2018-12-28T14:34:37.917Z,22.47
2018-12-28T14:37:41.358Z,22.07
2018-12-28T14:40:44.912Z,22.83
2018-12-28T14:43:48.349Z,22.10
2018-12-28T14:46:51.854Z,22.33
2018-12-28T14:49:55.280Z,23.97
2018-12-28T14:52:58.709Z,23.47
2018-12-28T14:56:02.137Z,23.47
2018-12-28T14:59:05.553Z,23.40
2018-12-28T15:02:08.992Z,21.63
2018-12-28T15:05:15.610Z,23.43
2018-12-28T15:08:17.666Z,21.30
2018-12-28T15:11:21.169Z,23.07
2018-12-28T15:14:35.394Z,23.37
2018-12-28T15:17:38.829Z,23.47
2018-12-28T15:20:42.248Z,23.00
2018-12-28T15:23:45.685Z,24.37
2018-12-28T15:26:49.125Z,24.23
2018-12-28T15:29:52.536Z,24.53
2018-12-28T15:32:55.989Z,23.30
2018-12-28T15:35:59.416Z,23.87
2018-12-28T15:39:03.221Z,22.30
2018-12-28T15:42:06.637Z,24.27
2018-12-28T15:45:10.072Z,22.47
2018-12-28T15:48:13.516Z,23.43
2018-12-28T15:51:16.929Z,24.37
2018-12-28T15:54:20.363Z,23.47
2018-12-28T15:57:23.813Z,24.13
2018-12-28T16:00:27.217Z,23.63
2018-12-28T16:03:30.652Z,24.60
2018-12-28T16:06:34.092Z,23.50
2018-12-28T16:09:37.519Z,24.17
2018-12-28T16:12:40.959Z,23.93
2018-12-28T16:15:44.372Z,23.70
2018-12-28T16:18:47.809Z,23.93
2018-12-28T16:21:51.229Z,24.40
2018-12-28T16:24:54.661Z,22.63
2018-12-28T16:27:58.125Z,24.50
2018-12-28T16:31:01.559Z,24.10
2018-12-28T16:34:04.964Z,25.47
2018-12-28T16:37:08.415Z,25.00
2018-12-28T16:40:11.857Z,24.63
2018-12-28T16:43:15.304Z,26.10
2018-12-28T16:46:18.716Z,23.90
2018-12-28T16:49:22.139Z,24.27
2018-12-28T16:52:25.548Z,23.43
2018-12-28T16:55:29.000Z,23.40
2018-12-28T16:58:32.412Z,23.97
2018-12-28T17:01:35.845Z,26.17
2018-12-28T17:04:39.256Z,25.03
2018-12-28T17:07:42.696Z,26.50
2018-12-28T17:10:46.110Z,26.43
2018-12-28T17:13:49.540Z,26.07
2018-12-28T17:16:52.957Z,24.33
2018-12-28T17:19:56.409Z,25.27
2018-12-28T17:22:59.841Z,23.67
2018-12-28T17:26:03.252Z,25.00
2018-12-28T17:29:06.694Z,26.10
2018-12-28T17:32:10.141Z,27.00
2018-12-28T17:35:13.563Z,26.67
2018-12-28T17:38:16.997Z,24.03
2018-12-28T17:41:20.456Z,24.20
2018-12-28T17:44:23.893Z,24.43
2018-12-28T17:47:27.308Z,23.73
2018-12-28T17:50:30.746Z,28.03
2018-12-28T17:53:34.181Z,25.47
2018-12-28T17:56:37.605Z,24.63
2018-12-28T17:59:41.052Z,25.97
2018-12-28T18:02:44.475Z,24.73
2018-12-28T18:05:47.905Z,24.33
2018-12-28T18:08:51.332Z,24.17
2018-12-28T18:11:54.744Z,22.47
2018-12-28T18:14:58.185Z,23.70
2018-12-28T18:18:01.605Z,22.33
2018-12-28T18:21:05.036Z,23.63
2018-12-28T18:24:08.457Z,24.27
2018-12-28T18:27:11.893Z,24.27
2018-12-28T18:30:15.309Z,22.37
2018-12-28T18:33:18.768Z,23.93
2018-12-28T18:36:23.110Z,23.37
2018-12-28T18:39:26.548Z,25.10
2018-12-28T18:42:29.965Z,24.67
2018-12-28T18:45:33.410Z,22.20
2018-12-28T18:48:36.845Z,24.17
2018-12-28T18:51:40.350Z,24.40
2018-12-28T18:54:43.788Z,24.80
2018-12-28T18:57:47.207Z,25.47
2018-12-28T19:00:50.636Z,25.77
2018-12-28T19:03:54.077Z,26.17
2018-12-28T19:06:57.494Z,28.03
2018-12-28T19:10:00.933Z,27.13
2018-12-28T19:13:04.345Z,25.70
2018-12-28T19:16:07.791Z,25.20
2018-12-28T19:19:11.289Z,25.67
2018-12-28T19:22:14.722Z,26.13
2018-12-28T19:25:18.144Z,26.20
2018-12-28T19:28:21.590Z,27.83
2018-12-28T19:31:25.005Z,24.87
2018-12-28T19:34:28.485Z,25.90
2018-12-28T19:37:31.961Z,25.93
2018-12-28T19:40:35.377Z,26.63
2018-12-28T19:43:38.946Z,25.77
2018-12-28T19:46:42.448Z,25.57
2018-12-28T19:49:45.864Z,25.00
2018-12-28T19:52:50.251Z,25.77
2018-12-28T19:55:53.665Z,25.43
2018-12-28T19:58:57.107Z,25.47
2018-12-28T20:02:00.636Z,24.40
2018-12-28T20:05:04.225Z,25.27
2018-12-28T20:08:07.665Z,26.07
2018-12-28T20:11:11.123Z,25.37
2018-12-28T20:14:14.537Z,26.27
2018-12-28T20:17:18.026Z,27.00
2018-12-28T20:20:21.434Z,26.67
2018-12-28T20:23:24.871Z,28.33
2018-12-28T20:26:28.304Z,27.17
2018-12-28T20:29:31.780Z,26.47
2018-12-28T20:32:35.209Z,26.37
2018-12-28T20:35:38.642Z,28.33
2018-12-28T20:38:42.056Z,28.07
2018-12-28T20:41:45.501Z,26.67
2018-12-28T20:44:48.973Z,27.97
2018-12-28T20:47:52.452Z,26.83
2018-12-28T20:50:55.864Z,27.03
2018-12-28T20:53:59.313Z,27.87
2018-12-28T20:57:02.738Z,26.83
2018-12-28T21:00:06.351Z,26.60
2018-12-28T21:03:09.782Z,27.43
2018-12-28T21:06:13.220Z,27.40
2018-12-28T21:09:16.637Z,28.57
2018-12-28T21:12:20.068Z,26.80
2018-12-28T21:15:23.525Z,27.50
2018-12-28T21:18:26.930Z,27.20
2018-12-28T21:21:30.364Z,28.17
2018-12-28T21:24:33.775Z,27.20
2018-12-28T21:27:37.221Z,26.90
2018-12-28T21:30:40.637Z,26.97
2018-12-28T21:33:44.070Z,28.80
2018-12-28T21:36:47.487Z,27.63
2018-12-28T21:39:50.921Z,26.93
2018-12-28T21:42:54.367Z,24.90
2018-12-28T21:45:57.799Z,25.33
2018-12-28T21:49:01.228Z,24.70
2018-12-28T21:52:04.675Z,26.63
2018-12-28T21:55:08.083Z,24.40
2018-12-28T21:58:11.517Z,25.27
2018-12-28T22:01:14.933Z,24.80
2018-12-28T22:04:18.380Z,27.33
2018-12-28T22:07:21.816Z,25.70
2018-12-28T22:10:27.149Z,24.83
2018-12-28T22:13:30.593Z,25.57
2018-12-28T22:16:34.009Z,24.50
2018-12-28T22:19:38.691Z,22.87
2018-12-28T22:22:42.269Z,23.47
2018-12-28T22:25:45.702Z,23.93
2018-12-28T22:28:49.137Z,24.17
2018-12-28T22:31:52.554Z,23.73
2018-12-28T22:34:55.980Z,24.70
2018-12-28T22:37:59.396Z,25.27
2018-12-28T22:41:02.919Z,25.30
2018-12-28T22:44:06.351Z,24.43
2018-12-28T22:47:09.782Z,24.50
2018-12-28T22:50:13.199Z,25.00
2018-12-28T22:53:16.649Z,23.90
2018-12-28T22:56:20.064Z,24.80
2018-12-28T22:59:23.504Z,23.30
2018-12-28T23:02:26.937Z,23.63
2018-12-28T23:05:30.671Z,22.50
2018-12-28T23:08:34.223Z,22.67
2018-12-28T23:11:37.972Z,22.27
2018-12-28T23:14:41.603Z,22.60
2018-12-28T23:17:45.322Z,21.93
2018-12-28T23:20:49.908Z,22.17
2018-12-28T23:23:53.554Z,23.73
2018-12-28T23:26:57.041Z,21.70
2018-12-28T23:30:00.470Z,22.03
2018-12-28T23:33:03.903Z,21.83
2018-12-28T23:36:07.325Z,20.80
2018-12-28T23:39:10.762Z,21.53
2018-12-28T23:42:14.176Z,21.07
2018-12-28T23:45:17.613Z,21.67
2018-12-28T23:48:21.055Z,23.03
2018-12-28T23:51:24.473Z,21.37
2018-12-28T23:54:27.898Z,22.17
2018-12-28T23:57:31.324Z,20.30
